Data for 12/19/2009

Time Sea-Level Adjusted Pressure Absolute Pressure Temperature Relative Humidity Dew Point Precipitation   
(mb) (inHg) (mb) (inHg) (C) (F) (%) (C) (F) (mm) (in)
09:25 1023 30.21 852 25.16 -5.4 22.2 82 -8.1 17.5 -5.101 -0.201
09:26 1023 30.21 852 25.16 -5.4 22.3 81 -8.1 17.4 -5.04 -0.198
09:27 1023 30.21 852 25.16 -5.2 22.6 81 -8 17.6 -4.897 -0.193
09:28 1023 30.21 852 25.16 -5.1 22.8 80 -8.1 17.5 -4.863 -0.191
09:29 1022 30.18 852 25.16 -5.1 22.7 79 -8.3 17.1 -4.983 -0.196
09:30 1022 30.18 852 25.16 -5.2 22.7 80 -8.1 17.5 -4.937 -0.194
09:31 1023 30.21 852 25.16 -5.1 22.9 79 -8.3 17.1 -4.954 -0.195
09:32 1023 30.21 852 25.16 -5.1 22.8 77 -8.5 16.6 -5.039 -0.198
09:33 1023 30.21 852 25.16 -5.3 22.5 77 -8.7 16.4 -5.209 -0.205
09:34 1023 30.21 852 25.16 -5.5 22.1 78 -8.7 16.4 -5.408 -0.213
09:35 1023 30.21 852 25.16 -5.6 21.9 79 -8.7 16.4 -5.459 -0.215
09:36 1023 30.21 852 25.16 -5.6 21.9 78 -8.8 16.1 -5.487 -0.216
09:37 1023 30.21 852 25.16 -5.7 21.8 80 -8.6 16.5 -5.538 -0.218
09:38 1023 30.21 852 25.16 -5.6 21.9 81 -8.4 16.8 -5.436 -0.214
09:39 1023 30.21 852 25.16 -5.4 22.3 81 -8.1 17.3 -5.21 -0.205
09:40 1023 30.21 852 25.16 -5.1 22.8 80 -8.1 17.4 -4.903 -0.193
09:41 1023 30.21 852 25.16 -5 23.1 77 -8.4 16.9 -4.818 -0.19
09:42 1023 30.21 852 25.16 -5.1 22.9 78 -8.4 16.9 -4.864 -0.191
09:43 1023 30.21 852 25.16 -5.1 22.8 78 -8.4 16.9 -4.915 -0.194
09:44 1023 30.21 852 25.16 -5.2 22.7 77 -8.6 16.6 -4.955 -0.195
09:45 1023 30.21 852 25.16 -5.2 22.6 77 -8.6 16.5 -5.108 -0.201
09:46 1023 30.21 852 25.16 -5.4 22.3 78 -8.6 16.5 -5.295 -0.208
09:47 1023 30.21 852 25.16 -5.4 22.2 77 -8.9 16 -5.3 -0.209
09:48 1023 30.21 852 25.16 -5.5 22.2 78 -8.7 16.4 -5.329 -0.21
09:49 1023 30.21 852 25.16 -5.3 22.4 79 -8.4 16.8 -5.125 -0.202
09:50 1023 30.21 852 25.16 -5.1 22.8 77 -8.5 16.7 -4.943 -0.195
09:51 1023 30.21 852 25.16 -5 23.1 77 -8.4 16.8 -4.745 -0.187
09:52 1023 30.21 852 25.16 -4.9 23.2 73 -9 15.8 -4.733 -0.186
09:53 1023 30.21 852 25.16 -5.2 22.6 76 -8.9 16 -5.102 -0.201
09:54 1023 30.21 852 25.16 -5.3 22.4 80 -8.3 17.1 -5.142 -0.202
09:55 1023 30.21 852 25.16 -5.1 22.9 79 -8.2 17.3 -4.875 -0.192
09:56 1023 30.21 852 25.16 -4.7 23.5 76 -8.3 17.1 -4.62 -0.182
09:57 1023 30.21 852 25.16 -4.7 23.6 74 -8.6 16.5 -4.563 -0.18
09:58 1023 30.21 852 25.16 -4.9 23.3 74 -8.7 16.3 -4.688 -0.185
09:59 1023 30.21 852 25.16 -4.8 23.4 79 -7.9 17.7 -4.58 -0.18
10:00 1023 30.21 852 25.16 -4.4 24 75 -8.2 17.2 -4.257 -0.168
10:01 1023 30.21 852 25.16 -4.4 24.1 76 -8 17.6 -4.229 -0.166
10:02 1023 30.21 852 25.16 -4.2 24.4 75 -7.9 17.7 -4.093 -0.161
10:03 1023 30.21 852 25.16 -4.1 24.6 73 -8.2 17.2 -3.991 -0.157
10:04 1023 30.21 852 25.16 -4.2 24.4 74 -8.3 17.1 -4.082 -0.161
10:05 1023 30.21 852 25.16 -4.2 24.4 74 -8.2 17.3 -4.014 -0.158
10:06 1023 30.21 852 25.16 -4.3 24.3 74 -8.2 17.2 -3.997 -0.157
10:07 1023 30.21 852 25.16 -4.3 24.2 75 -8.1 17.4 -3.985 -0.157
10:08 1023 30.21 852 25.16 -4.2 24.4 75 -8 17.6 -3.844 -0.151
10:09 1023 30.21 852 25.16 -4.2 24.5 75 -7.9 17.7 -3.776 -0.149
10:10 1023 30.21 852 25.16 -4.1 24.6 76 -7.8 18 -3.742 -0.147
10:11 1023 30.21 852 25.16 -4 24.8 76 -7.7 18.2 -3.686 -0.145
10:12 1023 30.21 852 25.16 -4 24.8 75 -7.8 18 -3.641 -0.143
10:13 1023 30.21 852 25.16 -4 24.7 75 -7.8 18 -3.687 -0.145
10:14 1023 30.21 852 25.16 -4.1 24.6 76 -7.7 18.1 -3.715 -0.146
10:15 1023 30.21 852 25.16 -4 24.8 76 -7.7 18.1 -3.636 -0.143
10:16 1023 30.21 852 25.16 -4 24.8 75 -7.7 18.1 -3.557 -0.14
10:17 1023 30.21 852 25.16 -4 24.9 75 -7.7 18.1 -3.569 -0.141
10:18 1023 30.21 852 25.16 -4 24.8 76 -7.6 18.3 -3.563 -0.14
10:19 1023 30.21 852 25.16 -4 24.8 76 -7.6 18.3 -3.484 -0.137
10:20 1023 30.21 852 25.16 -4 24.7 76 -7.7 18.1 -3.496 -0.138
10:21 1023 30.21 852 25.16 -4.1 24.5 75 -7.9 17.8 -3.62 -0.143
10:22 1023 30.21 852 25.16 -4.3 24.2 76 -8 17.7 -3.848 -0.151
10:23 1023 30.21 852 25.16 -4.5 24 77 -7.9 17.8 -4.001 -0.158
10:24 1023 30.21 852 25.16 -4.6 23.8 78 -7.9 17.8 -4.148 -0.163
10:25 1023 30.21 852 25.16 -4.6 23.8 78 -7.8 18 -4.178 -0.164
10:26 1023 30.21 852 25.16 -4.6 23.8 78 -7.8 17.9 -4.133 -0.163
10:27 1023 30.21 852 25.16 -4.6 23.8 78 -7.8 18 -4.099 -0.161
10:28 1023 30.21 852 25.16 -4.5 23.9 79 -7.6 18.4 -4.094 -0.161
10:29 1023 30.21 852 25.16 -4.3 24.2 79 -7.4 18.7 -3.913 -0.154
10:30 1023 30.21 852 25.16 -4 24.7 78 -7.3 18.9 -3.658 -0.144
10:31 1023 30.21 852 25.16 -3.8 25.2 77 -7.3 18.9 -3.375 -0.133
10:32 1023 30.21 852 25.16 -3.4 26 74 -7.3 18.9 -3.007 -0.118
10:33 1023 30.21 852 25.16 -3 26.7 73 -7.2 19 -2.667 -0.105
10:34 1023 30.21 852 25.16 -2.8 27 72 -7.2 19.1 -2.481 -0.098
10:35 1023 30.21 852 25.16 -2.6 27.3 71 -7.2 19.1 -2.328 -0.092
10:36 1023 30.21 852 25.16 -2.4 27.6 70 -7.1 19.2 -2.192 -0.086
10:37 1023 30.21 852 25.16 -2.3 27.9 70 -7 19.3 -2.034 -0.08
10:38 1023 30.21 852 25.16 -2.2 28 69 -7.1 19.2 -1.881 -0.074
10:39 1023 30.21 852 25.16 -2.3 27.9 69 -7.2 19.1 -1.768 -0.07
10:40 1022 30.18 852 25.16 -2.4 27.7 70 -7.2 19 -1.745 -0.069
10:41 1022 30.18 852 25.16 -2.6 27.4 71 -7.2 19.1 -1.649 -0.065
10:42 1022 30.18 852 25.16 -2.7 27.2 73 -6.9 19.5 -1.734 -0.068
10:43 1022 30.18 852 25.16 -2.8 27 74 -6.8 19.7 -1.774 -0.07
10:44 1022 30.18 852 25.16 -2.8 27 74 -6.7 19.9 -1.791 -0.071
10:45 1022 30.18 852 25.16 -2.7 27.2 73 -6.8 19.8 -1.769 -0.07
10:46 1022 30.18 852 25.16 -2.5 27.4 74 -6.6 20.1 -1.69 -0.067
10:47 1022 30.18 852 25.16 -2.4 27.8 73 -6.5 20.3 -1.599 -0.063
10:48 1022 30.18 852 25.16 -2.2 28 73 -6.4 20.6 -1.435 -0.056
10:49 1022 30.18 852 25.16 -2.1 28.2 72 -6.6 20.2 -1.356 -0.053
10:50 1022 30.18 852 25.16 -2.1 28.2 72 -6.5 20.4 -1.373 -0.054
10:51 1022 30.18 852 25.16 -2.1 28.2 73 -6.4 20.5 -1.418 -0.056
10:52 1022 30.18 851 25.13 -2.1 28.2 73 -6.4 20.4 -1.463 -0.058
10:53 1022 30.18 851 25.13 -2.2 28 73 -6.3 20.6 -1.577 -0.062
10:54 1022 30.18 851 25.13 -2.3 27.9 74 -6.3 20.7 -1.702 -0.067
10:55 1022 30.18 851 25.13 -2.4 27.6 74 -6.4 20.4 -1.707 -0.067
10:56 1022 30.18 851 25.13 -2.4 27.7 73 -6.5 20.2 -1.741 -0.069
10:57 1022 30.18 851 25.13 -2.3 27.8 73 -6.5 20.4 -1.753 -0.069
10:58 1022 30.18 851 25.13 -2.3 27.9 73 -6.4 20.4 -1.668 -0.066
10:59 1022 30.18 851 25.13 -2.3 27.8 73 -6.5 20.3 -1.56 -0.061
11:00 1022 30.18 851 25.13 -2.2 28 73 -6.4 20.4 -1.435 -0.056
11:01 1022 30.18 851 25.13 -2.1 28.1 73 -6.3 20.7 -1.339 -0.053
11:02 1022 30.18 851 25.13 -2.2 28.1 74 -6.2 20.9 -1.277 -0.05
11:03 1022 30.18 851 25.13 -2.1 28.2 75 -6 21.1 -1.26 -0.05
11:04 1022 30.18 851 25.13 -2.1 28.2 74 -6.1 21 -1.373 -0.054
11:05 1022 30.18 851 25.13 -2.2 28.1 74 -6.2 20.9 -1.515 -0.06
11:06 1022 30.18 851 25.13 -2.1 28.2 73 -6.3 20.7 -1.561 -0.061
11:07 1022 30.18 851 25.13 -2.1 28.3 72 -6.5 20.3 -1.567 -0.062
11:08 1022 30.18 851 25.13 -2 28.5 72 -6.4 20.5 -1.533 -0.06
11:09 1022 30.18 851 25.13 -1.9 28.5 71 -6.5 20.4 -1.426 -0.056
11:10 1022 30.18 851 25.13 -1.9 28.6 71 -6.5 20.3 -1.29 -0.051
11:11 1022 30.18 851 25.13 -1.9 28.6 71 -6.5 20.3 -1.29 -0.051
11:12 1022 30.18 851 25.13 -1.9 28.6 72 -6.4 20.5 -1.273 -0.05
11:13 1022 30.18 851 25.13 -1.9 28.5 72 -6.3 20.6 -1.268 -0.05
11:14 1022 30.18 851 25.13 -2 28.4 73 -6.2 20.8 -1.302 -0.051
11:15 1022 30.18 851 25.13 -2 28.4 73 -6.2 20.9 -1.303 -0.051
11:16 1022 30.18 851 25.13 -2 28.4 73 -6.1 21 -1.292 -0.051
11:17 1022 30.18 851 25.13 -1.9 28.5 73 -6.1 21 -1.343 -0.053
11:18 1022 30.18 851 25.13 -1.9 28.6 73 -6 21.1 -1.264 -0.05
11:19 1022 30.18 851 25.13 -1.7 28.9 73 -6 21.1 -1.247 -0.049
11:20 1022 30.18 851 25.13 -1.6 29.2 71 -6.1 21 -1.066 -0.042
11:21 1022 30.18 851 25.13 -1.4 29.5 71 -6.1 21.1 -0.953 -0.038
11:22 1022 30.18 851 25.13 -1.1 30 69 -6 21.2 -0.755 -0.03
11:23 1022 30.18 851 25.13 -0.9 30.4 68 -6 21.2 -0.528 -0.021
11:24 1022 30.18 851 25.13 -0.7 30.8 67 -6 21.2 -0.336 -0.013
11:25 1022 30.18 851 25.13 -0.5 31.1 67 -5.9 21.3 -0.166 -0.007
11:26 1022 30.18 851 25.13 -0.3 31.5 66 -5.9 21.4 -0.007 -0
11:27 1022 30.18 851 25.13 -0.1 31.9 65 -5.9 21.3 0.14 0.006
11:28 1022 30.18 851 25.13 0.1 32.2 64 -5.9 21.4 0.281 0.011
11:29 1022 30.18 851 25.13 0.2 32.4 64 -5.9 21.4 0.383 0.015
11:30 1022 30.18 851 25.13 0.3 32.6 65 -5.6 22 0.496 0.02
11:31 1022 30.18 851 25.13 0.5 32.8 63 -5.7 21.8 0.553 0.022
11:32 1022 30.18 851 25.13 0.5 32.9 63 -5.7 21.7 0.626 0.025
11:33 1022 30.18 851 25.13 0.6 33 62 -5.8 21.5 0.693 0.027
11:34 1022 30.18 851 25.13 0.6 33.1 62 -5.8 21.6 0.733 0.029
11:35 1022 30.18 851 25.13 0.6 33.1 63 -5.7 21.7 0.676 0.027
11:36 1022 30.18 851 25.13 0.6 33 63 -5.6 21.9 0.567 0.022
11:37 1022 30.18 851 25.13 0.4 32.8 64 -5.5 22.1 0.448 0.018
11:38 1022 30.18 851 25.13 0.3 32.6 65 -5.4 22.2 0.363 0.014
11:39 1022 30.18 851 25.13 0.2 32.3 66 -5.4 22.3 0.272 0.011
11:40 1022 30.18 851 25.13 0.2 32.3 67 -5.3 22.4 0.255 0.01
11:41 1022 30.18 851 25.13 0.2 32.4 67 -5.3 22.5 0.384 0.015
11:42 1022 30.18 851 25.13 0.4 32.7 64 -5.6 22 0.565 0.022
11:43 1022 30.18 851 25.13 0.5 33 63 -5.6 21.9 0.662 0.026
11:44 1022 30.18 851 25.13 0.6 33.1 63 -5.6 22 0.707 0.028
11:45 1022 30.18 851 25.13 0.6 33.1 64 -5.5 22.2 0.752 0.03
11:46 1022 30.18 851 25.13 0.6 33.1 64 -5.5 22.1 0.763 0.03
11:47 1022 30.18 851 25.13 0.6 33.1 64 -5.5 22.2 0.763 0.03
11:48 1022 30.18 851 25.13 0.6 33.1 65 -5.3 22.5 0.785 0.031
11:49 1022 30.18 851 25.13 0.7 33.2 65 -5.2 22.7 0.87 0.034
11:50 1022 30.18 851 25.13 0.9 33.5 65 -5 23 1.079 0.042
11:51 1022 30.18 851 25.13 1.1 33.9 63 -5.2 22.6 1.311 0.052
11:52 1022 30.18 851 25.13 1 33.8 62 -5.6 21.9 1.408 0.055
11:53 1022 30.18 851 25.13 0.8 33.4 62 -5.7 21.8 1.243 0.049
11:54 1022 30.18 851 25.13 0.3 32.6 64 -5.7 21.8 0.869 0.034
11:55 1022 30.18 851 25.13 0.1 32.1 65 -5.8 21.6 0.569 0.022
11:56 1022 30.18 851 25.13 0 32.1 65 -5.8 21.6 0.467 0.018
11:57 1022 30.18 851 25.13 0.1 32.1 65 -5.8 21.6 0.557 0.022
11:58 1022 30.18 851 25.13 0.3 32.5 63 -5.9 21.3 0.654 0.026
11:59 1022 30.18 851 25.13 0.4 32.8 62 -6 21.3 0.92 0.036
12:00 1022 30.18 851 25.13 0.6 33 61 -6.1 21 1.322 0.052
12:01 1022 30.18 851 25.13 0.6 33.1 62 -5.9 21.3 1.486 0.059
12:02 1022 30.18 851 25.13 0.5 32.9 63 -5.7 21.8 1.252 0.049
12:03 1022 30.18 851 25.13 0.2 32.3 65 -5.6 22 0.867 0.034
12:04 1022 30.18 851 25.13 -0.1 31.9 67 -5.5 22 0.556 0.022
12:05 1022 30.18 851 25.13 -0.1 31.8 66 -5.8 21.6 0.469 0.018
12:06 1022 30.18 851 25.13 0 32.1 65 -5.8 21.5 0.668 0.026
12:07 1022 30.18 851 25.13 0.2 32.4 63 -6.1 21.1 1.053 0.041
12:08 1022 30.18 851 25.13 0.4 32.8 63 -5.9 21.4 1.227 0.048
12:09 1022 30.18 851 25.13 0.6 33.1 63 -5.7 21.7 1.403 0.055
12:10 1022 30.18 851 25.13 0.8 33.4 63 -5.5 22 1.641 0.065
12:11 1022 30.18 851 25.13 0.9 33.7 61 -5.7 21.8 1.81 0.071
12:12 1022 30.18 851 25.13 1.1 34 60 -5.8 21.5 2.207 0.087
12:13 1022 30.18 851 25.13 1.4 34.5 59 -5.8 21.6 2.382 0.094
12:14 1022 30.18 851 25.13 1.4 34.6 59 -5.7 21.7 2.45 0.096
12:15 1022 30.18 851 25.13 1.2 34.2 61 -5.4 22.4 2.172 0.086
12:16 1022 30.18 851 25.13 0.9 33.6 64 -5.3 22.5 1.769 0.07
12:17 1022 30.18 851 25.13 0.6 33.1 65 -5.3 22.5 1.337 0.053
12:18 1022 30.18 851 25.13 0.3 32.6 66 -5.3 22.5 1.02 0.04
12:19 1022 30.18 851 25.13 0.1 32.2 68 -5.1 22.8 0.759 0.03
12:20 1022 30.18 851 25.13 -0.1 31.8 67 -5.6 22 0.566 0.022
12:21 1022 30.18 851 25.13 -0.2 31.6 66 -5.8 21.6 0.39 0.015
12:22 1022 30.18 851 25.13 -0.2 31.6 67 -5.7 21.7 0.389 0.015
12:23 1022 30.18 851 25.13 -0.2 31.7 68 -5.5 22.2 0.4 0.016
12:24 1022 30.18 851 25.13 -0.1 31.8 68 -5.3 22.4 0.496 0.02
12:25 1022 30.18 851 25.13 -0.1 31.9 66 -5.6 21.8 0.536 0.021
12:26 1022 30.18 851 25.13 0 32.1 65 -5.7 21.8 0.603 0.024
12:27 1022 30.18 851 25.13 0 32.1 67 -5.4 22.3 0.609 0.024
12:28 1022 30.18 851 25.13 -0 32 67 -5.4 22.3 0.535 0.021
12:29 1021 30.15 851 25.13 -0.1 31.8 65 -6 21.3 0.41 0.016
12:30 1021 30.15 851 25.13 -0 31.9 66 -5.7 21.7 0.489 0.019
12:31 1021 30.15 851 25.13 -0 32 66 -5.7 21.8 0.54 0.021
12:32 1021 30.15 851 25.13 -0.1 31.9 67 -5.5 22 0.573 0.023
12:33 1021 30.15 851 25.13 -0.1 31.9 67 -5.4 22.2 0.562 0.022
12:34 1021 30.15 851 25.13 -0.1 31.8 69 -5.1 22.8 0.584 0.023
12:35 1021 30.15 851 25.13 -0.1 31.8 69 -5.1 22.9 0.629 0.025
12:36 1021 30.15 851 25.13 -0.2 31.7 69 -5.1 22.8 0.595 0.023
12:37 1021 30.15 851 25.13 -0.2 31.7 69 -5.1 22.8 0.544 0.021
12:38 1021 30.15 851 25.13 -0.1 31.7 69 -5.1 22.8 0.561 0.022
12:39 1021 30.15 851 25.13 -0.1 31.8 69 -5.1 22.8 0.527 0.021
12:40 1021 30.15 850 25.1 -0.1 31.8 70 -5 23 0.544 0.021
12:41 1021 30.15 850 25.1 -0.2 31.7 70 -5 23 0.447 0.018
12:42 1021 30.15 850 25.1 -0.3 31.5 72 -4.8 23.4 0.38 0.015
12:43 1021 30.15 850 25.1 -0.4 31.3 72 -4.7 23.5 0.306 0.012
12:44 1021 30.15 850 25.1 -0.4 31.2 73 -4.7 23.5 0.243 0.01
12:45 1021 30.15 850 25.1 -0.4 31.3 72 -4.8 23.4 0.198 0.008
12:46 1021 30.15 850 25.1 -0.4 31.3 72 -4.8 23.3 0.147 0.006
12:47 1021 30.15 850 25.1 -0.4 31.3 71 -5.1 22.9 0.17 0.007
12:48 1021 30.15 850 25.1 -0.3 31.5 70 -5.1 22.9 0.204 0.008
12:49 1021 30.15 850 25.1 -0.3 31.5 68 -5.4 22.2 0.198 0.008
12:50 1021 30.15 850 25.1 -0.2 31.7 68 -5.3 22.5 0.283 0.011
12:51 1021 30.15 850 25.1 -0.1 31.8 69 -5.2 22.7 0.322 0.013
12:52 1021 30.15 850 25.1 -0.1 31.9 68 -5.3 22.4 0.345 0.014
12:53 1021 30.15 850 25.1 -0 32 67 -5.5 22.2 0.407 0.016
12:54 1021 30.15 850 25.1 0 32.1 67 -5.4 22.3 0.458 0.018
12:55 1021 30.15 850 25.1 0.1 32.2 66 -5.5 22.2 0.509 0.02
12:56 1021 30.15 850 25.1 0.2 32.3 67 -5.3 22.4 0.628 0.025
12:57 1021 30.15 850 25.1 0.2 32.4 66 -5.4 22.3 0.769 0.03
12:58 1021 30.15 850 25.1 0.3 32.5 66 -5.3 22.4 0.843 0.033
12:59 1021 30.15 850 25.1 0.3 32.6 66 -5.4 22.3 0.86 0.034
13:00 1021 30.15 850 25.1 0.4 32.7 65 -5.5 22.1 0.883 0.035
13:01 1021 30.15 850 25.1 0.4 32.7 64 -5.5 22 0.934 0.037
13:02 1021 30.15 850 25.1 0.5 32.9 63 -5.7 21.8 0.917 0.036
13:03 1021 30.15 850 25.1 0.5 32.9 63 -5.6 21.9 0.979 0.039
13:04 1021 30.15 850 25.1 0.6 33 63 -5.7 21.7 0.984 0.039
13:05 1021 30.15 850 25.1 0.5 33 62 -5.8 21.5 1.007 0.04
13:06 1021 30.15 850 25.1 0.5 32.9 64 -5.5 22.1 0.979 0.039
13:07 1021 30.15 850 25.1 0.4 32.7 66 -5.3 22.5 0.888 0.035
13:08 1021 30.15 850 25.1 0.3 32.5 65 -5.6 22 0.781 0.031
13:09 1021 30.15 850 25.1 0.3 32.5 65 -5.5 22 0.696 0.027
13:10 1021 30.15 850 25.1 0.3 32.5 65 -5.6 21.9 0.707 0.028
13:11 1021 30.15 850 25.1 0.3 32.6 64 -5.7 21.7 0.775 0.031
13:12 1021 30.15 850 25.1 0.4 32.7 64 -5.5 22 0.854 0.034
13:13 1021 30.15 850 25.1 0.4 32.8 64 -5.6 21.9 0.945 0.037
13:14 1021 30.15 850 25.1 0.5 32.9 65 -5.4 22.3 1.075 0.042
13:15 1021 30.15 850 25.1 0.5 32.9 64 -5.6 21.9 1.177 0.046
13:16 1021 30.15 850 25.1 0.6 33.1 63 -5.7 21.7 1.29 0.051
13:17 1021 30.15 850 25.1 0.7 33.3 62 -5.7 21.8 1.29 0.051
13:18 1021 30.15 850 25.1 0.8 33.4 62 -5.7 21.7 1.335 0.053
13:19 1021 30.15 850 25.1 0.9 33.5 62 -5.6 21.9 1.296 0.051
13:20 1021 30.15 850 25.1 0.9 33.7 62 -5.5 22.1 1.324 0.052
13:21 1021 30.15 850 25.1 0.9 33.6 62 -5.5 22.2 1.318 0.052
13:22 1021 30.15 850 25.1 0.9 33.7 62 -5.4 22.2 1.335 0.053
13:23 1021 30.15 850 25.1 1 33.8 62 -5.4 22.3 1.403 0.055
13:24 1021 30.15 850 25.1 1.1 34 62 -5.4 22.3 1.483 0.058
13:25 1021 30.15 850 25.1 1.1 34 61 -5.5 22.1 1.596 0.063
13:26 1021 30.15 850 25.1 1.1 34 61 -5.5 22.1 1.658 0.065
13:27 1021 30.15 850 25.1 1.1 33.9 61 -5.6 22 1.653 0.065
13:28 1021 30.15 850 25.1 0.9 33.7 63 -5.2 22.6 1.545 0.061
13:29 1021 30.15 850 25.1 0.7 33.3 63 -5.4 22.2 1.307 0.051
13:30 1021 30.15 850 25.1 0.5 32.9 67 -4.8 23.3 1.086 0.043
13:31 1021 30.15 850 25.1 0.2 32.4 70 -4.6 23.8 0.809 0.032
13:32 1021 30.15 850 25.1 -0.1 31.8 71 -4.8 23.4 0.441 0.017
13:33 1021 30.15 850 25.1 -0.4 31.4 73 -4.7 23.6 0.186 0.007
13:34 1021 30.15 850 25.1 -0.5 31 74 -4.6 23.8 0.016 0.001
13:35 1021 30.15 850 25.1 -0.7 30.8 74 -4.7 23.5 -0.12 -0.005
13:36 1021 30.15 850 25.1 -0.7 30.8 74 -4.7 23.5 -0.211 -0.008
13:37 1021 30.15 850 25.1 -0.7 30.7 74 -4.8 23.4 -0.199 -0.008
13:38 1021 30.15 850 25.1 -0.7 30.8 75 -4.6 23.7 -0.205 -0.008
13:39 1021 30.15 850 25.1 -0.7 30.7 75 -4.6 23.7 -0.205 -0.008
13:40 1021 30.15 850 25.1 -0.7 30.8 75 -4.6 23.7 -0.171 -0.007
13:41 1021 30.15 850 25.1 -0.7 30.8 74 -4.7 23.5 -0.199 -0.008
13:42 1021 30.15 850 25.1 -0.6 30.9 73 -4.8 23.3 -0.143 -0.006
13:43 1021 30.15 850 25.1 -0.5 31 73 -4.8 23.4 -0.131 -0.005
13:44 1021 30.15 850 25.1 -0.5 31 74 -4.6 23.7 -0.075 -0.003
13:45 1021 30.15 850 25.1 -0.6 31 74 -4.6 23.7 -0.092 -0.004
13:46 1021 30.15 850 25.1 -0.6 31 74 -4.6 23.8 -0.126 -0.005
13:47 1021 30.15 850 25.1 -0.6 31 74 -4.6 23.7 -0.109 -0.004
13:48 1021 30.15 850 25.1 -0.5 31 73 -4.8 23.4 -0.08 -0.003
13:49 1021 30.15 850 25.1 -0.5 31.1 75 -4.4 24.1 -0.029 -0.001
13:50 1021 30.15 850 25.1 -0.5 31 76 -4.3 24.2 0.01 0
13:51 1021 30.15 850 25.1 -0.6 30.9 75 -4.5 24 -0.012 -0
13:52 1021 30.15 850 25.1 -0.6 30.9 75 -4.5 23.9 -0.086 -0.003
13:53 1021 30.15 850 25.1 -0.6 30.8 76 -4.4 24 -0.109 -0.004
13:54 1021 30.15 850 25.1 -0.7 30.8 77 -4.3 24.3 -0.171 -0.007
13:55 1021 30.15 850 25.1 -0.7 30.7 76 -4.5 24 -0.216 -0.009
13:56 1021 30.15 850 25.1 -0.7 30.7 77 -4.3 24.3 -0.273 -0.011
13:57 1021 30.15 850 25.1 -0.7 30.7 77 -4.3 24.3 -0.335 -0.013
13:58 1021 30.15 850 25.1 -0.8 30.6 78 -4.2 24.4 -0.364 -0.014
13:59 1021 30.15 850 25.1 -0.8 30.5 78 -4.2 24.5 -0.415 -0.016
14:00 1021 30.15 850 25.1 -0.9 30.4 79 -4.1 24.6 -0.483 -0.019
14:01 1021 30.15 850 25.1 -0.9 30.3 78 -4.3 24.3 -0.516 -0.02
14:02 1021 30.15 850 25.1 -0.9 30.3 78 -4.3 24.3 -0.5 -0.02
14:03 1021 30.15 850 25.1 -0.9 30.4 78 -4.2 24.4 -0.471 -0.019
14:04 1021 30.15 850 25.1 -0.9 30.4 79 -4.1 24.5 -0.454 -0.018
14:05 1021 30.15 850 25.1 -0.8 30.5 78 -4.2 24.4 -0.443 -0.017
14:06 1021 30.15 850 25.1 -0.8 30.6 77 -4.3 24.3 -0.403 -0.016
14:07 1021 30.15 850 25.1 -0.8 30.6 77 -4.2 24.4 -0.358 -0.014
14:08 1020 30.12 850 25.1 -0.7 30.7 78 -4.1 24.7 -0.33 -0.013
14:09 1020 30.12 850 25.1 -0.8 30.6 79 -4.1 24.7 -0.386 -0.015
14:10 1021 30.15 850 25.1 -0.8 30.5 80 -3.9 25 -0.403 -0.016
14:11 1021 30.15 850 25.1 -0.9 30.4 80 -3.9 25 -0.46 -0.018
14:12 1021 30.15 850 25.1 -0.9 30.4 80 -3.9 25 -0.415 -0.016
14:13 1021 30.15 850 25.1 -0.8 30.5 80 -3.9 25 -0.352 -0.014
14:14 1021 30.15 850 25.1 -0.8 30.5 80 -3.9 25 -0.284 -0.011
14:15 1021 30.15 850 25.1 -0.8 30.6 79 -3.9 24.9 -0.239 -0.009
14:16 1021 30.15 850 25.1 -0.7 30.7 79 -3.9 24.9 -0.205 -0.008
14:17 1021 30.15 850 25.1 -0.6 30.9 78 -4 24.8 -0.103 -0.004
14:18 1021 30.15 850 25.1 -0.5 31 76 -4.2 24.4 -0.007 -0
14:19 1021 30.15 850 25.1 -0.4 31.2 75 -4.4 24.1 0.106 0.004
14:20 1021 30.15 850 25.1 -0.3 31.4 72 -4.7 23.6 0.186 0.007
14:21 1021 30.15 850 25.1 -0.1 31.8 70 -4.9 23.1 0.288 0.011
14:22 1021 30.15 850 25.1 -0 32 69 -5.1 22.9 0.469 0.018
14:23 1021 30.15 850 25.1 0.1 32.2 69 -4.9 23.1 0.565 0.022
14:24 1021 30.15 850 25.1 0.2 32.4 68 -5 23 0.644 0.025
14:25 1021 30.15 850 25.1 0.3 32.5 68 -4.9 23.2 0.729 0.029
14:26 1021 30.15 850 25.1 0.3 32.5 70 -4.6 23.8 0.707 0.028
14:27 1020 30.12 850 25.1 0.3 32.5 70 -4.5 23.9 0.763 0.03
14:28 1020 30.12 850 25.1 0.3 32.5 72 -4.2 24.4 0.775 0.031
14:29 1020 30.12 850 25.1 0.3 32.5 71 -4.4 24.1 0.763 0.03
14:30 1021 30.15 850 25.1 0.2 32.4 71 -4.4 24.1 0.769 0.03
14:31 1021 30.15 850 25.1 0.2 32.4 71 -4.3 24.2 0.746 0.029
14:32 1021 30.15 850 25.1 0.2 32.4 71 -4.3 24.2 0.735 0.029
14:33 1021 30.15 850 25.1 0.2 32.4 71 -4.4 24.1 0.735 0.029
14:34 1021 30.15 850 25.1 0.2 32.4 71 -4.5 24 0.712 0.028
14:35 1021 30.15 850 25.1 0.2 32.4 71 -4.5 23.9 0.741 0.029
14:36 1020 30.12 850 25.1 0.3 32.5 72 -4.2 24.4 0.786 0.031
14:37 1020 30.12 850 25.1 0.2 32.3 72 -4.3 24.3 0.724 0.029
14:38 1020 30.12 850 25.1 0.2 32.3 72 -4.3 24.2 0.695 0.027
14:39 1020 30.12 850 25.1 0.2 32.3 73 -4.2 24.5 0.673 0.026
14:40 1020 30.12 850 25.1 0.2 32.3 73 -4.1 24.6 0.644 0.025
14:41 1020 30.12 850 25.1 0.1 32.2 74 -4 24.8 0.673 0.026
14:42 1020 30.12 849 25.07 0.1 32.2 75 -3.8 25.1 0.667 0.026
14:43 1020 30.12 849 25.07 0.1 32.1 75 -3.9 25 0.656 0.026
14:44 1020 30.12 849 25.07 0 32.1 73 -4.3 24.3 0.639 0.025
14:45 1020 30.12 849 25.07 0.1 32.2 70 -4.7 23.6 0.695 0.027
14:46 1020 30.12 849 25.07 0.2 32.4 73 -4 24.9 0.758 0.03
14:47 1020 30.12 849 25.07 0.2 32.4 73 -4 24.7 0.712 0.028
14:48 1020 30.12 849 25.07 0.3 32.5 74 -3.8 25.1 0.684 0.027
14:49 1020 30.12 849 25.07 0.2 32.4 75 -3.8 25.2 0.678 0.027
14:50 1020 30.12 849 25.07 0.2 32.3 74 -4 24.9 0.678 0.027
14:51 1020 30.12 849 25.07 0.2 32.3 74 -3.9 24.9 0.678 0.027
14:52 1020 30.12 850 25.1 0.2 32.3 74 -4 24.9 0.673 0.026
14:53 1020 30.12 849 25.07 0.2 32.4 73 -4.1 24.6 0.644 0.025
14:54 1020 30.12 849 25.07 0.2 32.3 72 -4.3 24.2 0.622 0.024
14:55 1020 30.12 850 25.1 0.3 32.5 71 -4.4 24.1 0.712 0.028
14:56 1020 30.12 850 25.1 0.4 32.7 71 -4.3 24.3 0.809 0.032
14:57 1020 30.12 850 25.1 0.4 32.8 71 -4.2 24.4 0.831 0.033
14:58 1020 30.12 850 25.1 0.5 32.9 71 -4.3 24.3 0.871 0.034
14:59 1020 30.12 850 25.1 0.5 32.9 70 -4.4 24 0.911 0.036
15:00 1020 30.12 850 25.1 0.6 33 69 -4.5 24 0.973 0.038
15:01 1020 30.12 850 25.1 0.6 33.1 69 -4.4 24.2 1.047 0.041
15:02 1020 30.12 850 25.1 0.6 33.2 69 -4.4 24.1 1.047 0.041
15:03 1021 30.15 850 25.1 0.6 33.2 70 -4.2 24.4 1.058 0.042
15:04 1021 30.15 850 25.1 0.6 33.1 71 -4 24.7 0.973 0.038
15:05 1021 30.15 850 25.1 0.5 32.9 71 -4.1 24.6 0.928 0.037
15:06 1021 30.15 850 25.1 0.5 33 70 -4.3 24.3 0.911 0.036
15:07 1021 30.15 850 25.1 0.5 33 70 -4.3 24.3 0.945 0.037
15:08 1021 30.15 850 25.1 0.6 33 69 -4.5 24 0.979 0.039
15:09 1021 30.15 850 25.1 0.6 33.2 68 -4.6 23.6 1.018 0.04
15:10 1021 30.15 850 25.1 0.7 33.2 67 -4.7 23.5 1.092 0.043
15:11 1021 30.15 850 25.1 0.7 33.3 67 -4.7 23.6 1.137 0.045
15:12 1021 30.15 850 25.1 0.8 33.4 67 -4.7 23.6 1.16 0.046
15:13 1021 30.15 850 25.1 0.8 33.4 65 -5 23 1.165 0.046
15:14 1021 30.15 850 25.1 0.9 33.5 67 -4.6 23.7 1.245 0.049
15:15 1021 30.15 850 25.1 0.9 33.6 67 -4.5 23.8 1.245 0.049
15:16 1020 30.12 850 25.1 0.9 33.6 66 -4.8 23.3 1.245 0.049
15:17 1020 30.12 850 25.1 0.9 33.6 65 -4.9 23.2 1.216 0.048
15:18 1020 30.12 850 25.1 0.8 33.5 64 -5.1 22.8 1.262 0.05
15:19 1020 30.12 850 25.1 0.9 33.6 63 -5.3 22.5 1.296 0.051
15:20 1020 30.12 850 25.1 0.9 33.7 63 -5.3 22.4 1.381 0.054
15:21 1021 30.15 850 25.1 1 33.8 63 -5.2 22.7 1.409 0.055
15:22 1021 30.15 850 25.1 1.1 33.9 62 -5.3 22.4 1.437 0.057
15:23 1021 30.15 850 25.1 1.1 33.9 62 -5.4 22.3 1.494 0.059
15:24 1021 30.15 850 25.1 1.1 34 62 -5.4 22.3 1.522 0.06
15:25 1021 30.15 850 25.1 1.1 34.1 64 -4.9 23.1 1.551 0.061
15:26 1021 30.15 850 25.1 1.1 33.9 63 -5.2 22.7 1.511 0.059
15:27 1021 30.15 850 25.1 1 33.8 62 -5.4 22.4 1.483 0.058
15:28 1021 30.15 850 25.1 1.1 33.9 62 -5.4 22.4 1.449 0.057
15:29 1021 30.15 850 25.1 1.1 33.9 63 -5.2 22.6 1.494 0.059
15:30 1021 30.15 850 25.1 1.1 33.9 64 -5 23 1.509 0.059
15:31 1021 30.15 850 25.1 1 33.9 65 -4.8 23.3 1.454 0.057